Time;durP1;ratioP1;P1;durP2;ratioP2;P2;SDS_P1;SDS_P2;PMS_P1;PMS_P2;Temp;Humidity;BMP_temperature;BMP_pressure;BME280_temperature;BME280_humidity;BME280_pressure;Samples;Min_cycle;Max_cycle;Signal;HPM_P1;HPM_P2
2022/04/16 00:00:56;;;;;;;23.30;12.80;;;8.00;99.90;;;;;;5111989;28;20032;-65
2022/04/16 00:03:24;;;;;;;21.20;13.00;;;8.00;99.90;;;;;;5112179;28;20530;-66
2022/04/16 00:05:55;;;;;;;21.65;13.93;;;8.00;99.90;;;;;;5112139;28;20395;-66
2022/04/16 00:08:23;;;;;;;31.13;14.73;;;7.90;99.90;;;;;;5112338;28;20081;-65
2022/04/16 00:10:50;;;;;;;20.75;14.07;;;7.90;99.90;;;;;;5112081;28;20042;-65
2022/04/16 00:13:16;;;;;;;24.80;13.75;;;7.90;99.90;;;;;;5112086;28;20032;-65
2022/04/16 00:15:46;;;;;;;21.58;13.75;;;7.80;99.90;;;;;;5111662;28;20040;-66
2022/04/16 00:18:12;;;;;;;23.15;13.95;;;7.80;99.90;;;;;;5111883;28;20046;-66
2022/04/16 00:20:40;;;;;;;22.95;14.05;;;7.80;99.90;;;;;;5111903;28;20091;-68
2022/04/16 00:23:06;;;;;;;21.85;14.77;;;7.80;99.90;;;;;;5112020;28;20047;-65
2022/04/16 00:25:33;;;;;;;23.60;14.50;;;7.80;99.90;;;;;;5111905;28;20051;-67
2022/04/16 00:27:59;;;;;;;26.38;14.48;;;7.80;99.90;;;;;;5111966;28;20061;-67
2022/04/16 00:30:25;;;;;;;23.88;14.75;;;7.70;99.90;;;;;;5093203;28;20032;-65
2022/04/16 00:32:55;;;;;;;27.00;14.98;;;7.70;99.90;;;;;;5111595;28;20368;-66
2022/04/16 00:35:23;;;;;;;24.35;15.23;;;7.70;99.90;;;;;;5093484;28;20043;-67
2022/04/16 00:37:49;;;;;;;25.25;14.85;;;7.70;99.90;;;;;;5093319;28;20043;-65
2022/04/16 00:40:15;;;;;;;26.88;15.68;;;7.70;99.90;;;;;;5093086;28;20156;-66
2022/04/16 00:42:45;;;;;;;24.77;15.65;;;7.70;99.90;;;;;;5111669;28;20039;-66
2022/04/16 00:45:12;;;;;;;25.73;16.10;;;7.70;99.90;;;;;;5111528;28;20052;-66
2022/04/16 00:47:38;;;;;;;22.40;15.20;;;7.60;99.90;;;;;;5076508;28;20483;-65
2022/04/16 00:50:04;;;;;;;30.25;15.57;;;7.60;99.90;;;;;;5111409;28;20134;-66
2022/04/16 00:52:30;;;;;;;23.77;15.23;;;7.70;99.90;;;;;;5111318;28;20088;-66
2022/04/16 00:54:56;;;;;;;28.42;16.83;;;7.70;99.90;;;;;;5111508;28;20036;-65
2022/04/16 00:57:25;;;;;;;26.52;15.38;;;7.70;99.90;;;;;;5111505;28;20075;-66
2022/04/16 00:59:51;;;;;;;25.42;14.82;;;7.60;99.90;;;;;;5111002;28;20122;-66
2022/04/16 01:02:17;;;;;;;27.73;15.18;;;7.60;99.90;;;;;;5111564;28;20040;-66
2022/04/16 01:04:43;;;;;;;27.45;16.67;;;7.50;99.90;;;;;;5111369;28;20054;-66
2022/04/16 01:07:09;;;;;;;28.70;15.57;;;7.50;99.90;;;;;;5111284;28;20107;-65
2022/04/16 01:09:35;;;;;;;25.95;15.63;;;7.50;99.90;;;;;;5111013;28;20039;-66
2022/04/16 01:12:00;;;;;;;25.15;15.98;;;7.60;99.90;;;;;;5111394;28;20027;-66
2022/04/16 01:14:28;;;;;;;33.63;16.35;;;7.50;99.90;;;;;;5111178;28;20122;-66
2022/04/16 01:16:55;;;;;;;29.00;16.42;;;7.50;99.90;;;;;;5111569;28;20373;-66
2022/04/16 01:19:21;;;;;;;24.50;15.20;;;7.50;99.90;;;;;;5111121;28;20044;-66
2022/04/16 01:21:48;;;;;;;31.15;17.42;;;7.60;99.90;;;;;;5111112;28;20044;-66
2022/04/16 01:24:14;;;;;;;30.08;16.20;;;7.50;99.90;;;;;;5111120;28;20043;-66
2022/04/16 01:26:41;;;;;;;26.40;16.05;;;7.50;99.90;;;;;;5111238;28;20120;-66
2022/04/16 01:29:08;;;;;;;25.92;16.23;;;7.50;99.90;;;;;;5114690;28;20044;-66
2022/04/16 01:31:34;;;;;;;29.63;15.95;;;7.50;99.90;;;;;;5115400;28;20035;-66
2022/04/16 01:34:00;;;;;;;29.80;15.75;;;7.50;99.90;;;;;;5115356;28;20452;-66
2022/04/16 01:36:29;;;;;;;27.75;16.27;;;7.40;99.90;;;;;;5115322;28;20061;-67
2022/04/16 01:38:56;;;;;;;26.33;16.50;;;7.40;99.90;;;;;;5114906;28;20385;-66
2022/04/16 01:41:22;;;;;;;31.88;17.73;;;7.40;99.90;;;;;;5097010;28;20423;-66
2022/04/16 01:43:47;;;;;;;27.40;15.98;;;7.40;99.90;;;;;;5114858;28;20046;-65
2022/04/16 01:46:13;;;;;;;25.05;16.02;;;7.40;99.90;;;;;;5115107;28;20544;-66
2022/04/16 01:48:38;;;;;;;26.13;15.70;;;7.40;99.90;;;;;;5096635;28;20039;-66
2022/04/16 01:51:05;;;;;;;29.80;17.75;;;7.40;99.90;;;;;;5114935;28;20039;-66
2022/04/16 01:53:31;;;;;;;27.55;16.88;;;7.40;99.90;;;;;;5114771;28;20043;-66
2022/04/16 01:55:57;;;;;;;32.35;16.48;;;7.40;99.90;;;;;;5114867;28;20065;-66
2022/04/16 01:58:22;;;;;;;29.70;17.25;;;7.40;99.90;;;;;;5114592;28;20035;-66
2022/04/16 02:00:49;;;;;;;30.40;16.75;;;7.40;99.90;;;;;;5114438;28;20043;-66
2022/04/16 02:03:14;;;;;;;34.42;18.25;;;7.40;99.90;;;;;;5114721;28;20047;-66
2022/04/16 02:05:40;;;;;;;32.53;17.52;;;7.40;99.90;;;;;;5114645;28;20050;-65
2022/04/16 02:08:07;;;;;;;28.05;17.80;;;7.40;99.90;;;;;;5114527;28;20063;-66
2022/04/16 02:10:34;;;;;;;26.35;15.93;;;7.40;99.90;;;;;;5114281;28;20043;-66
2022/04/16 02:13:00;;;;;;;33.25;18.15;;;7.40;99.90;;;;;;5114348;28;20027;-66
2022/04/16 02:15:27;;;;;;;29.48;18.13;;;7.40;99.90;;;;;;5096375;28;20124;-65
2022/04/16 02:17:54;;;;;;;32.70;17.35;;;7.40;99.90;;;;;;5114489;28;20031;-66
2022/04/16 02:20:21;;;;;;;30.73;18.70;;;7.30;99.90;;;;;;5114131;28;20066;-66
2022/04/16 02:22:47;;;;;;;30.58;17.73;;;7.30;99.90;;;;;;5114171;28;20035;-66
2022/04/16 02:25:15;;;;;;;32.33;18.75;;;7.40;99.90;;;;;;5114180;28;20395;-66
2022/04/16 02:27:41;;;;;;;29.55;17.83;;;7.40;99.90;;;;;;5096232;28;20437;-65
2022/04/16 02:30:09;;;;;;;30.67;18.38;;;7.30;99.90;;;;;;5114119;28;20415;-66
2022/04/16 02:32:39;;;;;;;29.25;17.13;;;7.30;99.90;;;;;;5114150;28;20066;-66
2022/04/16 02:35:09;;;;;;;32.97;20.00;;;7.30;99.90;;;;;;5114054;28;20036;-65
2022/04/16 02:37:35;;;;;;;33.50;19.35;;;7.20;99.90;;;;;;5095905;28;20043;-66
2022/04/16 02:40:02;;;;;;;31.45;19.80;;;7.30;99.90;;;;;;5112945;28;20043;-65
2022/04/16 02:42:28;;;;;;;35.25;19.00;;;7.30;99.90;;;;;;5114114;28;20048;-66
2022/04/16 02:47:37;;;;;;;33.00;19.73;;;7.20;99.90;;;;;;5114102;28;20080;-66
2022/04/16 02:50:03;;;;;;;33.80;19.35;;;7.20;99.90;;;;;;5113583;28;20047;-66
2022/04/16 02:52:33;;;;;;;37.65;20.65;;;7.20;99.90;;;;;;5113457;28;20042;-66
2022/04/16 02:54:58;;;;;;;36.22;20.58;;;7.20;99.90;;;;;;5114027;28;20688;-66
2022/04/16 02:57:24;;;;;;;31.27;20.58;;;7.20;99.90;;;;;;5113679;28;20040;-66
2022/04/16 02:59:49;;;;;;;34.47;20.67;;;7.20;99.90;;;;;;5113271;28;20043;-66
2022/04/16 03:02:15;;;;;;;38.88;21.25;;;7.10;99.90;;;;;;5113380;28;20044;-65
2022/04/16 03:04:40;;;;;;;38.22;22.00;;;7.20;99.90;;;;;;5113460;28;20043;-66
2022/04/16 03:07:06;;;;;;;36.75;21.20;;;7.20;99.90;;;;;;5113349;28;20036;-66
2022/04/16 03:09:32;;;;;;;32.97;19.80;;;7.10;99.90;;;;;;5113312;28;20031;-66
2022/04/16 03:11:58;;;;;;;39.85;21.58;;;7.10;99.90;;;;;;5113350;28;20488;-66
2022/04/16 03:19:52;;;;;;;35.88;20.33;;;7.10;99.90;;;;;;5113111;28;20172;-66
2022/04/16 03:22:18;;;;;;;34.65;20.80;;;7.10;99.90;;;;;;5113084;28;20071;-65
2022/04/16 03:24:43;;;;;;;35.05;21.15;;;7.10;99.90;;;;;;5113133;28;20070;-66
2022/04/16 03:27:09;;;;;;;37.05;21.65;;;7.00;99.90;;;;;;5113123;28;20039;-66
2022/04/16 03:29:35;;;;;;;37.13;22.40;;;7.10;99.90;;;;;;5094382;28;20039;-66
2022/04/16 03:32:01;;;;;;;40.47;22.38;;;7.10;99.90;;;;;;5094633;28;20081;-66
2022/04/16 03:34:26;;;;;;;37.80;21.55;;;7.10;99.90;;;;;;5113022;28;20131;-66
2022/04/16 03:36:52;;;;;;;37.05;22.15;;;7.20;99.90;;;;;;5112901;28;20172;-65
2022/04/16 03:39:20;;;;;;;40.13;21.83;;;7.20;99.90;;;;;;5112595;28;20523;-67
2022/04/16 03:41:47;;;;;;;45.38;23.88;;;7.30;99.90;;;;;;5112784;28;20047;-65
2022/04/16 03:44:12;;;;;;;39.08;22.50;;;7.30;99.90;;;;;;5112672;28;20046;-66
2022/04/16 03:46:38;;;;;;;42.00;22.27;;;7.40;99.90;;;;;;5112620;28;20496;-66
2022/04/16 03:49:04;;;;;;;38.30;22.42;;;7.40;99.90;;;;;;5112618;28;20543;-66
2022/04/16 03:51:29;;;;;;;39.60;22.35;;;7.40;99.90;;;;;;5111627;28;20479;-66
2022/04/16 03:53:55;;;;;;;34.50;21.60;;;7.40;99.90;;;;;;5112605;28;20039;-66
2022/04/16 04:01:49;;;;;;;37.50;21.45;;;7.50;99.90;;;;;;5112663;28;20044;-66
2022/04/16 04:04:15;;;;;;;35.72;21.00;;;7.50;99.90;;;;;;5112319;28;20036;-66
2022/04/16 04:06:40;;;;;;;39.20;21.13;;;7.60;99.90;;;;;;5112329;28;20051;-65
2022/04/16 04:09:06;;;;;;;34.92;21.30;;;7.70;99.90;;;;;;5111961;28;20043;-66
2022/04/16 04:11:33;;;;;;;35.92;20.58;;;7.70;99.90;;;;;;5112130;28;20451;-66
2022/04/16 04:13:58;;;;;;;32.08;19.55;;;7.70;99.90;;;;;;5094045;28;20396;-66
2022/04/16 04:16:24;;;;;;;37.15;20.38;;;7.70;99.90;;;;;;5112288;28;20031;-67
2022/04/16 04:18:49;;;;;;;36.30;21.58;;;7.80;99.90;;;;;;5111863;28;20061;-67
2022/04/16 04:21:15;;;;;;;34.38;19.98;;;7.80;99.90;;;;;;5111965;28;20100;-65
2022/04/16 04:23:40;;;;;;;36.03;19.40;;;7.80;99.90;;;;;;5111980;28;20765;-66
2022/04/16 04:26:06;;;;;;;35.35;19.83;;;7.80;99.90;;;;;;5111790;28;20049;-66
2022/04/16 04:28:32;;;;;;;32.58;18.40;;;7.80;99.90;;;;;;5111812;28;20483;-66
2022/04/16 04:30:57;;;;;;;32.90;19.42;;;7.80;99.90;;;;;;5112023;28;20515;-66
2022/04/16 04:33:23;;;;;;;32.38;19.40;;;7.80;99.90;;;;;;5111864;28;20042;-67
2022/04/16 04:35:51;;;;;;;34.53;19.10;;;7.90;99.90;;;;;;5111690;28;20041;-66
2022/04/16 04:38:18;;;;;;;33.85;18.02;;;7.90;99.90;;;;;;5111553;28;20035;-66
2022/04/16 04:40:43;;;;;;;35.25;18.80;;;7.90;99.90;;;;;;5111462;28;20046;-66
2022/04/16 04:43:09;;;;;;;30.65;19.15;;;7.90;99.90;;;;;;5111577;28;20039;-66
2022/04/16 04:45:34;;;;;;;31.33;18.33;;;7.90;99.90;;;;;;5093309;28;20043;-66
2022/04/16 04:48:00;;;;;;;29.08;17.30;;;7.90;99.90;;;;;;5109036;28;20080;-65
2022/04/16 04:50:25;;;;;;;29.38;17.00;;;7.90;99.90;;;;;;5108055;28;20039;-64
2022/04/16 04:52:51;;;;;;;28.25;17.85;;;7.90;99.90;;;;;;5108460;28;20082;-66
2022/04/16 04:55:16;;;;;;;33.00;19.45;;;7.90;99.90;;;;;;5109617;28;20044;-66
2022/04/16 04:57:42;;;;;;;30.50;17.40;;;8.00;99.90;;;;;;5111680;28;20423;-65
2022/04/16 05:00:10;;;;;;;33.70;17.42;;;7.90;99.90;;;;;;5109900;28;20123;-66
2022/04/16 05:02:42;;;;;;;32.60;18.25;;;7.90;99.90;;;;;;5110619;28;20114;-67
2022/04/16 05:05:08;;;;;;;29.60;17.35;;;8.00;99.90;;;;;;5111311;28;20590;-66
2022/04/16 05:07:34;;;;;;;28.38;16.27;;;8.00;99.90;;;;;;5111420;28;20082;-66
2022/04/16 05:09:59;;;;;;;29.40;16.67;;;8.00;99.90;;;;;;5111015;28;20035;-66
2022/04/16 05:12:25;;;;;;;29.42;16.85;;;8.10;99.90;;;;;;5111506;28;20070;-66
2022/04/16 05:14:50;;;;;;;28.70;17.02;;;8.00;99.90;;;;;;5111385;28;20416;-66
2022/04/16 05:17:16;;;;;;;29.67;17.35;;;8.00;99.90;;;;;;5111383;28;20047;-66
2022/04/16 05:19:41;;;;;;;29.10;15.95;;;8.10;99.90;;;;;;5110886;28;20411;-66
2022/04/16 05:22:07;;;;;;;30.55;15.75;;;8.20;99.90;;;;;;5110872;28;20042;-66
2022/04/16 05:24:33;;;;;;;26.25;15.25;;;8.20;99.90;;;;;;5110798;28;20050;-66
2022/04/16 05:26:58;;;;;;;26.00;15.10;;;8.20;99.90;;;;;;5111026;28;20039;-67
2022/04/16 05:29:24;;;;;;;27.25;15.27;;;8.30;99.90;;;;;;5110638;28;20492;-66
2022/04/16 05:31:50;;;;;;;26.67;15.75;;;8.40;99.90;;;;;;5111091;28;20093;-66
2022/04/16 05:34:18;;;;;;;30.85;16.77;;;8.40;99.90;;;;;;5110909;28;20031;-66
2022/04/16 05:36:46;;;;;;;31.40;15.80;;;8.40;99.90;;;;;;5110862;28;20036;-66
2022/04/16 05:39:12;;;;;;;24.77;15.10;;;8.50;99.90;;;;;;5110474;28;20039;-66
2022/04/16 05:41:37;;;;;;;27.50;15.23;;;8.50;99.90;;;;;;5111051;28;20035;-66
2022/04/16 05:44:04;;;;;;;23.88;14.57;;;8.50;99.90;;;;;;5092816;28;20040;-66
2022/04/16 05:46:30;;;;;;;31.55;15.80;;;8.50;99.90;;;;;;5110954;28;20071;-66
2022/04/16 05:48:56;;;;;;;28.50;15.90;;;8.60;99.90;;;;;;5110797;28;20089;-66
2022/04/16 05:51:23;;;;;;;26.35;14.95;;;8.60;99.90;;;;;;5106423;28;20036;-68
2022/04/16 05:53:49;;;;;;;26.13;15.88;;;8.60;99.90;;;;;;5090468;28;20661;-68
2022/04/16 05:56:17;;;;;;;28.85;15.77;;;8.60;99.90;;;;;;5072313;28;20119;-67
2022/04/16 05:58:43;;;;;;;31.20;15.75;;;8.50;99.90;;;;;;5090272;28;20475;-68
2022/04/16 06:01:09;;;;;;;27.55;15.25;;;8.50;99.90;;;;;;5090590;28;20075;-69
2022/04/16 06:03:41;;;;;;;26.27;15.18;;;8.40;99.90;;;;;;5072229;28;20044;-68
2022/04/16 06:06:08;;;;;;;31.98;14.82;;;8.40;99.90;;;;;;5090408;28;20040;-68
2022/04/16 06:08:34;;;;;;;26.13;15.15;;;8.50;99.90;;;;;;5072246;28;20443;-70
2022/04/16 06:11:00;;;;;;;28.13;15.18;;;8.40;99.90;;;;;;5090603;28;20070;-69
2022/04/16 06:13:25;;;;;;;27.25;14.90;;;8.50;99.90;;;;;;5090407;28;20499;-68
2022/04/16 06:15:51;;;;;;;25.25;13.48;;;8.50;99.90;;;;;;5093513;28;20108;-68
2022/04/16 06:18:17;;;;;;;28.63;15.13;;;8.50;99.90;;;;;;5093910;28;20148;-69
2022/04/16 06:20:42;;;;;;;25.10;14.68;;;8.50;99.90;;;;;;5093632;28;20089;-68
2022/04/16 06:23:08;;;;;;;22.50;13.73;;;8.60;99.90;;;;;;5093697;28;20074;-68
2022/04/16 06:25:34;;;;;;;24.33;13.85;;;8.70;99.90;;;;;;5094053;28;20040;-67
2022/04/16 06:27:59;;;;;;;24.35;13.88;;;8.60;99.90;;;;;;5093768;28;20036;-68
2022/04/16 06:30:25;;;;;;;26.08;14.02;;;8.60;99.90;;;;;;5075330;28;20042;-68
2022/04/16 06:32:51;;;;;;;25.80;13.63;;;8.50;99.90;;;;;;5093680;28;20044;-69
2022/04/16 06:35:16;;;;;;;28.83;13.25;;;8.50;99.90;;;;;;5093439;28;20132;-69
2022/04/16 06:37:42;;;;;;;21.80;12.90;;;8.50;99.90;;;;;;5075492;28;20036;-68
2022/04/16 06:40:09;;;;;;;26.15;14.40;;;8.50;99.90;;;;;;5093508;28;20036;-69
2022/04/16 06:42:35;;;;;;;27.50;13.18;;;8.50;99.90;;;;;;5093641;28;20039;-69
2022/04/16 06:45:01;;;;;;;28.38;14.05;;;8.50;99.90;;;;;;5093515;28;20594;-68
2022/04/16 06:47:29;;;;;;;23.38;13.90;;;8.50;99.90;;;;;;5093470;28;20036;-69
2022/04/16 06:49:55;;;;;;;25.67;13.77;;;8.70;99.90;;;;;;5093094;28;20105;-70
2022/04/16 06:52:21;;;;;;;23.83;14.38;;;8.80;99.90;;;;;;5093506;28;20038;-69
2022/04/16 06:54:47;;;;;;;27.63;14.48;;;9.00;99.90;;;;;;5093511;28;20122;-69
2022/04/16 06:57:13;;;;;;;21.05;14.13;;;9.00;99.90;;;;;;5093453;28;20056;-69
2022/04/16 06:59:38;;;;;;;24.88;14.32;;;9.20;99.90;;;;;;5092954;28;20071;-68
2022/04/16 07:02:09;;;;;;;23.58;12.77;;;9.20;99.90;;;;;;5093234;28;20044;-68
2022/04/16 07:04:35;;;;;;;22.80;13.65;;;9.30;99.90;;;;;;5092975;28;20441;-68
2022/04/16 07:07:00;;;;;;;21.70;13.15;;;9.30;99.90;;;;;;5093366;28;20115;-68
2022/04/16 07:09:26;;;;;;;24.90;13.10;;;9.40;99.90;;;;;;5092945;28;20092;-69
2022/04/16 07:11:52;;;;;;;21.95;11.68;;;9.50;99.90;;;;;;5093214;28;20451;-68
2022/04/16 07:14:18;;;;;;;20.27;12.15;;;9.50;99.90;;;;;;5074690;28;20069;-70
2022/04/16 07:16:43;;;;;;;20.10;12.00;;;9.50;99.90;;;;;;5092815;28;20484;-69
2022/04/16 07:19:09;;;;;;;18.98;11.57;;;9.60;99.90;;;;;;5092512;28;20044;-68
2022/04/16 07:21:35;;;;;;;17.75;10.23;;;9.60;99.90;;;;;;5092710;28;20046;-69
2022/04/16 07:24:01;;;;;;;16.35;10.50;;;9.70;99.90;;;;;;5092820;28;20124;-68
2022/04/16 07:26:26;;;;;;;17.65;10.35;;;9.60;99.90;;;;;;5092361;28;20123;-69
2022/04/16 07:28:52;;;;;;;15.43;9.60;;;9.60;99.90;;;;;;5092322;28;20100;-68
2022/04/16 07:31:18;;;;;;;16.63;9.70;;;9.70;99.90;;;;;;5092599;28;20032;-70
2022/04/16 07:33:43;;;;;;;15.18;10.02;;;9.70;99.90;;;;;;5074306;28;20507;-69
2022/04/16 07:36:09;;;;;;;18.77;9.55;;;9.80;99.90;;;;;;5074477;28;20044;-69
2022/04/16 07:38:34;;;;;;;15.88;9.02;;;9.90;99.90;;;;;;5092175;28;20123;-68
2022/04/16 07:41:02;;;;;;;17.05;10.13;;;10.00;99.90;;;;;;5092544;28;20039;-69
2022/04/16 07:43:28;;;;;;;16.63;9.23;;;10.10;99.90;;;;;;5074193;28;20048;-69
2022/04/16 07:45:54;;;;;;;16.65;9.73;;;10.10;99.90;;;;;;5092195;28;20101;-68
2022/04/16 07:48:20;;;;;;;14.98;9.18;;;10.10;99.90;;;;;;5073947;28;20040;-72
2022/04/16 07:50:46;;;;;;;15.90;8.68;;;9.90;99.90;;;;;;5074032;28;20032;-72
2022/04/16 07:53:12;;;;;;;15.48;8.27;;;10.00;99.90;;;;;;5097532;28;20039;-72
2022/04/16 07:55:37;;;;;;;12.27;7.78;;;10.10;99.90;;;;;;5085926;28;20043;-72
2022/04/16 07:58:03;;;;;;;13.35;7.90;;;10.10;99.90;;;;;;5085551;28;20036;-72
2022/04/16 08:00:29;;;;;;;11.43;7.10;;;10.10;99.90;;;;;;5097907;28;20036;-72
2022/04/16 08:02:54;;;;;;;16.80;7.57;;;10.20;99.90;;;;;;5091691;28;20051;-72
2022/04/16 08:05:20;;;;;;;10.75;6.88;;;10.30;99.90;;;;;;5073583;28;20040;-72
2022/04/16 08:07:46;;;;;;;12.07;7.38;;;10.20;99.90;;;;;;5073927;28;20044;-72
2022/04/16 08:10:12;;;;;;;11.38;6.57;;;10.20;99.90;;;;;;5091609;28;20036;-71
2022/04/16 08:12:37;;;;;;;10.90;6.90;;;10.20;99.90;;;;;;5091641;28;20036;-72
2022/04/16 08:15:04;;;;;;;13.98;6.57;;;10.20;99.90;;;;;;5091655;28;20036;-72
2022/04/16 08:17:30;;;;;;;11.93;6.25;;;10.30;99.90;;;;;;5073510;28;20040;-68
2022/04/16 08:19:56;;;;;;;12.40;7.03;;;10.40;99.90;;;;;;5091379;28;20452;-69
2022/04/16 08:22:22;;;;;;;10.98;6.07;;;10.40;99.90;;;;;;5091584;28;20097;-69
2022/04/16 08:25:43;;;;;;;12.80;6.50;;;10.40;99.90;;;;;;5091551;28;20058;-69
2022/04/16 08:27:43;;;;;;;12.98;6.03;;;10.50;99.90;;;;;;5091246;28;20054;-69
2022/04/16 08:30:10;;;;;;;11.07;5.63;;;10.50;99.90;;;;;;5072935;28;20044;-68
2022/04/16 08:32:36;;;;;;;8.55;4.82;;;10.60;99.90;;;;;;5091318;28;20607;-68
2022/04/16 08:35:03;;;;;;;12.52;4.65;;;10.60;99.90;;;;;;5091385;28;20553;-68
2022/04/16 08:37:28;;;;;;;7.93;5.07;;;10.50;99.90;;;;;;5090669;28;20051;-70
2022/04/16 08:39:54;;;;;;;7.57;4.60;;;10.60;99.90;;;;;;5091030;28;20482;-70
2022/04/16 08:42:21;;;;;;;9.20;4.00;;;10.70;99.90;;;;;;5091157;28;20462;-70
2022/04/16 08:44:47;;;;;;;5.75;3.90;;;10.60;99.90;;;;;;5073123;28;20117;-70
2022/04/16 08:47:13;;;;;;;6.22;3.95;;;10.80;99.90;;;;;;5073245;28;20036;-70
2022/04/16 08:49:39;;;;;;;5.78;4.00;;;10.70;99.90;;;;;;5090940;28;20032;-70
2022/04/16 08:52:07;;;;;;;8.07;4.40;;;10.70;99.90;;;;;;5073222;28;20040;-70
2022/04/16 08:54:34;;;;;;;5.43;3.60;;;10.70;99.90;;;;;;5072856;28;20048;-69
2022/04/16 08:57:00;;;;;;;9.23;3.75;;;10.80;99.90;;;;;;5096231;28;20051;-70
2022/04/16 08:59:25;;;;;;;4.22;3.17;;;10.70;99.90;;;;;;5099753;28;20029;-68
2022/04/16 09:01:51;;;;;;;5.70;3.67;;;10.90;99.90;;;;;;5101262;28;20040;-70
2022/04/16 09:04:23;;;;;;;6.53;3.45;;;10.90;99.90;;;;;;5100192;28;20081;-70
2022/04/16 09:07:00;;;;;;;4.85;3.50;;;11.00;99.90;;;;;;5093666;28;20038;-70
2022/04/16 09:09:26;;;;;;;5.05;3.30;;;10.90;99.90;;;;;;5093468;28;20044;-70
2022/04/16 09:11:52;;;;;;;4.57;3.63;;;11.20;99.90;;;;;;5111904;28;20084;-70
2022/04/16 09:14:18;;;;;;;5.03;3.33;;;11.20;99.90;;;;;;5111372;28;20122;-70
2022/04/16 09:16:43;;;;;;;7.05;3.75;;;11.30;99.90;;;;;;5111394;28;20031;-70
2022/04/16 09:19:16;;;;;;;7.80;3.70;;;11.30;99.90;;;;;;5092725;28;20131;-70
2022/04/16 09:21:43;;;;;;;8.27;3.53;;;11.20;99.90;;;;;;5111242;28;20059;-69
2022/04/16 09:24:09;;;;;;;5.60;3.35;;;11.10;99.90;;;;;;5110994;28;20047;-69
2022/04/16 09:26:37;;;;;;;5.63;3.42;;;11.20;99.90;;;;;;5092800;28;20044;-68
2022/04/16 09:29:07;;;;;;;6.63;3.70;;;11.40;99.90;;;;;;5111001;28;20055;-70
2022/04/16 09:31:34;;;;;;;7.20;3.65;;;11.50;99.90;;;;;;5111244;28;20043;-69
2022/04/16 09:34:00;;;;;;;5.10;3.65;;;11.60;99.90;;;;;;5092845;28;20071;-70
2022/04/16 09:36:27;;;;;;;8.27;2.50;;;11.50;99.90;;;;;;5092813;28;20129;-69
2022/04/16 09:39:10;;;;;;;4.28;2.33;;;11.60;94.60;;;;;;5110736;28;20050;-68
2022/04/16 09:41:38;;;;;;;4.75;2.30;;;11.60;72.60;;;;;;5111239;28;20043;-68
2022/04/16 09:44:04;;;;;;;2.50;1.80;;;11.70;63.80;;;;;;5111070;28;20050;-68
2022/04/16 09:46:31;;;;;;;5.97;2.22;;;11.50;59.70;;;;;;5110966;28;20052;-70
2022/04/16 09:49:05;;;;;;;2.47;2.10;;;11.60;69.70;;;;;;5110863;28;20488;-70
2022/04/16 09:51:34;;;;;;;3.22;2.20;;;11.60;67.60;;;;;;5115260;28;20031;-70
2022/04/16 09:54:04;;;;;;;3.08;1.73;;;11.50;61.50;;;;;;5096588;28;20483;-69
2022/04/16 09:56:34;;;;;;;6.30;2.22;;;11.70;59.30;;;;;;5115001;28;20044;-69
2022/04/16 09:59:03;;;;;;;5.10;1.67;;;11.60;59.00;;;;;;5114602;28;20039;-69
2022/04/16 10:01:29;;;;;;;2.25;1.80;;;11.70;61.00;;;;;;5114737;28;20483;-69
2022/04/16 10:03:56;;;;;;;2.00;1.70;;;11.70;58.70;;;;;;5114648;28;20047;-69
2022/04/16 10:06:21;;;;;;;2.03;1.90;;;11.70;56.40;;;;;;5114779;28;20047;-69
2022/04/16 10:08:50;;;;;;;2.95;2.10;;;11.50;57.90;;;;;;5114497;28;20035;-69
2022/04/16 10:11:21;;;;;;;2.05;1.85;;;11.70;61.70;;;;;;5096246;28;20046;-70
2022/04/16 10:14:00;;;;;;;4.40;1.90;;;11.70;66.30;;;;;;5115375;28;20062;-69
2022/04/16 10:16:40;;;;;;;1.70;1.60;;;11.80;58.90;;;;;;5115357;28;20108;-69
2022/04/16 10:19:16;;;;;;;3.92;1.80;;;11.60;55.90;;;;;;5097352;28;20043;-69
2022/04/16 10:21:42;;;;;;;3.03;1.90;;;11.90;58.50;;;;;;5114962;28;20043;-69
2022/04/16 10:24:08;;;;;;;3.53;2.05;;;11.80;56.80;;;;;;5114321;28;20044;-70
2022/04/16 10:26:43;;;;;;;2.63;1.98;;;12.00;60.00;;;;;;5114218;28;20503;-69
2022/04/16 10:29:08;;;;;;;3.13;1.85;;;12.10;58.30;;;;;;5114221;28;20047;-68
2022/04/16 10:31:48;;;;;;;3.55;1.63;;;12.00;56.90;;;;;;5096262;28;20035;-71
2022/04/16 10:34:16;;;;;;;1.85;1.50;;;12.00;59.00;;;;;;5114253;28;20039;-70
2022/04/16 10:36:51;;;;;;;5.05;1.65;;;12.20;56.60;;;;;;5096162;28;20408;-69
2022/04/16 10:39:23;;;;;;;1.80;1.60;;;12.30;56.80;;;;;;5113833;28;20040;-68
2022/04/16 10:41:55;;;;;;;5.22;1.70;;;12.50;58.90;;;;;;5095685;28;20052;-68
2022/04/16 10:44:21;;;;;;;3.70;1.50;;;12.40;53.80;;;;;;5114061;28;20042;-68
2022/04/16 10:46:49;;;;;;;1.50;1.40;;;12.40;54.80;;;;;;5113853;28;20423;-68
2022/04/16 10:49:16;;;;;;;2.55;1.60;;;12.70;59.00;;;;;;5113637;28;20047;-69
2022/04/16 10:51:42;;;;;;;2.67;1.50;;;12.80;59.60;;;;;;5095729;28;20114;-70
2022/04/16 10:54:15;;;;;;;3.80;1.73;;;12.60;54.40;;;;;;5113897;28;20598;-69
2022/04/16 10:56:54;;;;;;;3.33;1.58;;;12.50;56.70;;;;;;5095515;28;20052;-69
2022/04/16 10:59:41;;;;;;;2.63;1.63;;;12.60;56.70;;;;;;5109574;28;20039;-69
2022/04/16 11:02:23;;;;;;;2.67;1.35;;;12.50;54.60;;;;;;5104767;28;20519;-69
2022/04/16 11:05:00;;;;;;;3.20;1.77;;;12.60;55.00;;;;;;5106601;28;20100;-69
2022/04/16 11:07:26;;;;;;;3.33;1.60;;;12.60;52.80;;;;;;5088799;28;20534;-69
2022/04/16 11:09:53;;;;;;;3.53;1.88;;;12.40;52.50;;;;;;5085544;28;20086;-69
2022/04/16 11:12:22;;;;;;;1.98;1.50;;;12.40;53.80;;;;;;5067837;28;20477;-69
2022/04/16 11:14:52;;;;;;;5.25;1.67;;;12.60;57.10;;;;;;5101806;28;20452;-68
2022/04/16 11:17:19;;;;;;;3.70;1.55;;;12.70;56.90;;;;;;5103165;28;20035;-68
2022/04/16 11:19:45;;;;;;;1.88;1.60;;;12.50;53.40;;;;;;5095213;28;20040;-68
2022/04/16 11:22:11;;;;;;;3.20;1.52;;;12.50;54.50;;;;;;5095666;28;20543;-69
2022/04/16 11:24:38;;;;;;;2.65;1.60;;;12.50;53.70;;;;;;5074389;28;20078;-70
2022/04/16 11:35:23;;;;;;;2.55;1.58;;;12.70;52.70;;;;;;5092594;28;20109;-70
2022/04/16 11:37:55;;;;;;;;;;;12.70;54.20;;;;;;5093013;28;20032;-70
2022/04/16 11:40:21;;;;;;;2.65;1.50;;;12.90;53.50;;;;;;5074085;28;19923;-70
2022/04/16 11:42:46;;;;;;;1.42;1.30;;;13.10;53.30;;;;;;5074215;28;20044;-71
2022/04/16 11:45:14;;;;;;;1.60;1.50;;;12.90;50.60;;;;;;5074399;28;20526;-70
2022/04/16 11:47:40;;;;;;;1.75;1.65;;;12.90;51.50;;;;;;5092327;28;20127;-70
2022/04/16 11:50:07;;;;;;;1.98;1.50;;;13.00;51.80;;;;;;5092072;28;20123;-70
2022/04/16 11:52:35;;;;;;;2.60;1.20;;;13.00;50.80;;;;;;5092135;28;20477;-70
2022/04/16 11:55:17;;;;;;;1.63;1.17;;;13.00;50.40;;;;;;5092440;28;20063;-70
2022/04/16 11:57:48;;;;;;;2.20;1.37;;;13.10;50.20;;;;;;5074311;28;20393;-70
2022/04/16 12:00:14;;;;;;;1.85;1.50;;;13.20;50.70;;;;;;5091758;28;20483;-70
2022/04/16 12:02:47;;;;;;;1.40;1.20;;;13.20;50.80;;;;;;5091928;28;20068;-70
2022/04/16 12:05:15;;;;;;;1.95;1.60;;;13.30;52.20;;;;;;5073822;28;20054;-70
2022/04/16 12:07:51;;;;;;;2.15;1.58;;;13.10;50.50;;;;;;5092047;28;20504;-71
2022/04/16 12:10:18;;;;;;;1.38;1.27;;;13.30;50.50;;;;;;5073688;28;20044;-70
2022/04/16 12:12:49;;;;;;;2.97;1.40;;;13.20;48.10;;;;;;5090970;28;20051;-70
2022/04/16 12:15:22;;;;;;;1.63;1.50;;;13.30;47.00;;;;;;5073831;28;20067;-70
2022/04/16 12:17:49;;;;;;;2.72;1.70;;;13.20;46.80;;;;;;5091966;28;20399;-70
2022/04/16 12:20:14;;;;;;;2.08;1.50;;;13.20;48.20;;;;;;5091508;28;20057;-70
2022/04/16 12:22:47;;;;;;;1.77;1.23;;;13.20;47.70;;;;;;5091639;28;20047;-70
2022/04/16 12:25:15;;;;;;;2.60;1.50;;;13.30;49.30;;;;;;5091519;28;20043;-70
2022/04/16 12:27:46;;;;;;;2.42;1.42;;;13.40;45.90;;;;;;5091951;28;20369;-70
2022/04/16 12:30:14;;;;;;;2.08;1.20;;;13.40;46.20;;;;;;5073101;28;20101;-70
2022/04/16 12:32:39;;;;;;;3.42;1.75;;;13.60;47.00;;;;;;5091584;28;20131;-70
2022/04/16 12:35:05;;;;;;;1.63;1.25;;;13.60;47.70;;;;;;5091601;28;20127;-70
2022/04/16 12:37:31;;;;;;;2.50;1.52;;;13.60;49.40;;;;;;5091575;28;20399;-70
2022/04/16 12:39:56;;;;;;;6.60;1.40;;;13.80;50.50;;;;;;5091040;28;20127;-70
2022/04/16 12:42:22;;;;;;;1.98;1.60;;;13.70;49.10;;;;;;5091546;28;20476;-70
2022/04/16 12:44:47;;;;;;;1.83;1.42;;;13.60;47.70;;;;;;5091256;28;20036;-70
2022/04/16 12:47:14;;;;;;;1.80;1.30;;;13.60;49.30;;;;;;5073443;28;20496;-71
2022/04/16 12:49:40;;;;;;;2.80;1.45;;;13.80;49.40;;;;;;5072820;28;20047;-71
2022/04/16 12:52:05;;;;;;;1.55;1.45;;;13.80;46.80;;;;;;5073356;28;20392;-71
2022/04/16 12:54:31;;;;;;;1.50;1.40;;;13.80;49.90;;;;;;5091050;28;20039;-71
2022/04/16 12:56:57;;;;;;;1.90;1.40;;;13.80;47.50;;;;;;5091416;28;20118;-70
2022/04/16 12:59:22;;;;;;;2.28;1.45;;;13.80;49.30;;;;;;5072669;28;20043;-71
2022/04/16 13:01:48;;;;;;;2.10;1.42;;;13.90;48.50;;;;;;5073238;28;20044;-71